sensor_id;sensor_type;location;lat;lon;timestamp;P1;durP1;ratioP1;P2;durP2;ratioP2
13897;SDS011;7019;50.766;4.474;2023-11-22T00:00:36;32.67;;;19.17;;
13897;SDS011;7019;50.766;4.474;2023-11-22T00:03:05;29.33;;;17.67;;
13897;SDS011;7019;50.766;4.474;2023-11-22T00:05:32;37.43;;;18.33;;
13897;SDS011;7019;50.766;4.474;2023-11-22T00:07:59;31.63;;;19.00;;
13897;SDS011;7019;50.766;4.474;2023-11-22T00:10:26;31.03;;;18.93;;
13897;SDS011;7019;50.766;4.474;2023-11-22T00:12:53;29.50;;;18.23;;
13897;SDS011;7019;50.766;4.474;2023-11-22T00:15:20;31.87;;;18.57;;
13897;SDS011;7019;50.766;4.474;2023-11-22T00:17:48;31.43;;;18.17;;
13897;SDS011;7019;50.766;4.474;2023-11-22T00:20:16;32.23;;;17.63;;
13897;SDS011;7019;50.766;4.474;2023-11-22T00:22:44;30.50;;;17.53;;
13897;SDS011;7019;50.766;4.474;2023-11-22T00:25:12;31.93;;;18.30;;
13897;SDS011;7019;50.766;4.474;2023-11-22T00:27:39;31.17;;;18.10;;
13897;SDS011;7019;50.766;4.474;2023-11-22T00:30:07;32.97;;;18.70;;
13897;SDS011;7019;50.766;4.474;2023-11-22T00:32:35;30.53;;;16.87;;
13897;SDS011;7019;50.766;4.474;2023-11-22T00:35:02;33.03;;;18.93;;
13897;SDS011;7019;50.766;4.474;2023-11-22T00:37:31;33.23;;;18.03;;
13897;SDS011;7019;50.766;4.474;2023-11-22T00:39:58;33.33;;;18.07;;
13897;SDS011;7019;50.766;4.474;2023-11-22T00:42:25;33.50;;;18.83;;
13897;SDS011;7019;50.766;4.474;2023-11-22T00:44:52;33.03;;;20.03;;
13897;SDS011;7019;50.766;4.474;2023-11-22T00:47:20;32.63;;;18.00;;
13897;SDS011;7019;50.766;4.474;2023-11-22T00:49:47;33.67;;;18.47;;
13897;SDS011;7019;50.766;4.474;2023-11-22T00:52:14;37.43;;;19.97;;
13897;SDS011;7019;50.766;4.474;2023-11-22T00:54:43;31.23;;;18.00;;
13897;SDS011;7019;50.766;4.474;2023-11-22T00:57:11;28.17;;;18.27;;
13897;SDS011;7019;50.766;4.474;2023-11-22T00:59:38;33.67;;;19.10;;
13897;SDS011;7019;50.766;4.474;2023-11-22T01:02:05;33.70;;;18.43;;
13897;SDS011;7019;50.766;4.474;2023-11-22T01:04:33;27.43;;;16.90;;
13897;SDS011;7019;50.766;4.474;2023-11-22T01:07:02;33.90;;;18.27;;
13897;SDS011;7019;50.766;4.474;2023-11-22T01:09:30;34.83;;;19.37;;
13897;SDS011;7019;50.766;4.474;2023-11-22T01:11:59;33.77;;;19.37;;
13897;SDS011;7019;50.766;4.474;2023-11-22T01:14:26;31.57;;;18.80;;
13897;SDS011;7019;50.766;4.474;2023-11-22T01:16:53;31.97;;;18.53;;
13897;SDS011;7019;50.766;4.474;2023-11-22T01:19:21;31.37;;;18.80;;
13897;SDS011;7019;50.766;4.474;2023-11-22T01:21:48;29.97;;;18.83;;
13897;SDS011;7019;50.766;4.474;2023-11-22T01:24:15;31.50;;;18.33;;
13897;SDS011;7019;50.766;4.474;2023-11-22T01:26:42;31.43;;;17.97;;
13897;SDS011;7019;50.766;4.474;2023-11-22T01:29:10;31.17;;;17.43;;
13897;SDS011;7019;50.766;4.474;2023-11-22T01:31:38;33.50;;;20.17;;
13897;SDS011;7019;50.766;4.474;2023-11-22T01:34:07;32.80;;;18.93;;
13897;SDS011;7019;50.766;4.474;2023-11-22T01:36:34;33.37;;;17.93;;
13897;SDS011;7019;50.766;4.474;2023-11-22T01:39:01;31.73;;;17.20;;
13897;SDS011;7019;50.766;4.474;2023-11-22T01:41:29;32.20;;;18.20;;
13897;SDS011;7019;50.766;4.474;2023-11-22T01:43:56;34.07;;;17.70;;
13897;SDS011;7019;50.766;4.474;2023-11-22T01:46:24;30.17;;;17.60;;
13897;SDS011;7019;50.766;4.474;2023-11-22T01:48:52;32.70;;;18.57;;
13897;SDS011;7019;50.766;4.474;2023-11-22T01:51:21;31.77;;;17.57;;
13897;SDS011;7019;50.766;4.474;2023-11-22T01:53:49;31.00;;;16.53;;
13897;SDS011;7019;50.766;4.474;2023-11-22T01:56:19;27.63;;;15.93;;
13897;SDS011;7019;50.766;4.474;2023-11-22T01:58:47;29.63;;;16.07;;
13897;SDS011;7019;50.766;4.474;2023-11-22T02:01:15;31.43;;;18.20;;
13897;SDS011;7019;50.766;4.474;2023-11-22T02:03:43;30.67;;;16.43;;
13897;SDS011;7019;50.766;4.474;2023-11-22T02:06:14;31.70;;;17.83;;
13897;SDS011;7019;50.766;4.474;2023-11-22T02:08:42;30.07;;;17.37;;
13897;SDS011;7019;50.766;4.474;2023-11-22T02:11:09;30.70;;;17.30;;
13897;SDS011;7019;50.766;4.474;2023-11-22T02:13:36;26.67;;;16.00;;
13897;SDS011;7019;50.766;4.474;2023-11-22T02:16:04;31.97;;;18.10;;
13897;SDS011;7019;50.766;4.474;2023-11-22T02:18:31;32.77;;;18.57;;
13897;SDS011;7019;50.766;4.474;2023-11-22T02:21:00;31.57;;;17.37;;
13897;SDS011;7019;50.766;4.474;2023-11-22T02:23:28;35.13;;;18.43;;
13897;SDS011;7019;50.766;4.474;2023-11-22T02:25:56;35.87;;;18.87;;
13897;SDS011;7019;50.766;4.474;2023-11-22T02:28:23;31.90;;;18.60;;
13897;SDS011;7019;50.766;4.474;2023-11-22T02:30:51;32.63;;;17.80;;
13897;SDS011;7019;50.766;4.474;2023-11-22T02:33:19;31.17;;;17.03;;
13897;SDS011;7019;50.766;4.474;2023-11-22T02:35:46;35.00;;;18.67;;
13897;SDS011;7019;50.766;4.474;2023-11-22T02:38:15;31.57;;;17.90;;
13897;SDS011;7019;50.766;4.474;2023-11-22T02:40:44;32.63;;;18.40;;
13897;SDS011;7019;50.766;4.474;2023-11-22T02:43:11;32.67;;;18.30;;
13897;SDS011;7019;50.766;4.474;2023-11-22T02:45:39;32.60;;;18.30;;
13897;SDS011;7019;50.766;4.474;2023-11-22T02:48:06;29.20;;;17.90;;
13897;SDS011;7019;50.766;4.474;2023-11-22T02:50:34;37.00;;;19.03;;
13897;SDS011;7019;50.766;4.474;2023-11-22T02:53:03;37.57;;;18.37;;
13897;SDS011;7019;50.766;4.474;2023-11-22T02:55:34;33.57;;;18.13;;
13897;SDS011;7019;50.766;4.474;2023-11-22T02:58:06;35.83;;;17.43;;
13897;SDS011;7019;50.766;4.474;2023-11-22T03:00:33;32.27;;;17.23;;
13897;SDS011;7019;50.766;4.474;2023-11-22T03:03:00;30.57;;;17.97;;
13897;SDS011;7019;50.766;4.474;2023-11-22T03:05:29;27.97;;;16.70;;
13897;SDS011;7019;50.766;4.474;2023-11-22T03:07:56;31.20;;;17.73;;
13897;SDS011;7019;50.766;4.474;2023-11-22T03:10:24;29.17;;;17.83;;
13897;SDS011;7019;50.766;4.474;2023-11-22T03:12:51;31.37;;;18.40;;
13897;SDS011;7019;50.766;4.474;2023-11-22T03:15:20;32.17;;;17.47;;
13897;SDS011;7019;50.766;4.474;2023-11-22T03:17:47;29.03;;;16.97;;
13897;SDS011;7019;50.766;4.474;2023-11-22T03:20:14;32.47;;;17.60;;
13897;SDS011;7019;50.766;4.474;2023-11-22T03:22:42;27.27;;;15.97;;
13897;SDS011;7019;50.766;4.474;2023-11-22T03:25:10;27.97;;;16.03;;
13897;SDS011;7019;50.766;4.474;2023-11-22T03:27:37;30.87;;;17.47;;
13897;SDS011;7019;50.766;4.474;2023-11-22T03:30:05;27.43;;;15.80;;
13897;SDS011;7019;50.766;4.474;2023-11-22T03:32:38;28.20;;;16.60;;
13897;SDS011;7019;50.766;4.474;2023-11-22T03:35:05;27.67;;;16.97;;
13897;SDS011;7019;50.766;4.474;2023-11-22T03:37:32;32.23;;;18.00;;
13897;SDS011;7019;50.766;4.474;2023-11-22T03:39:59;33.67;;;18.50;;
13897;SDS011;7019;50.766;4.474;2023-11-22T03:42:27;32.80;;;18.17;;
13897;SDS011;7019;50.766;4.474;2023-11-22T03:44:54;30.50;;;17.20;;
13897;SDS011;7019;50.766;4.474;2023-11-22T03:47:24;31.37;;;17.27;;
13897;SDS011;7019;50.766;4.474;2023-11-22T03:49:52;28.23;;;16.10;;
13897;SDS011;7019;50.766;4.474;2023-11-22T03:52:19;30.53;;;17.50;;
13897;SDS011;7019;50.766;4.474;2023-11-22T03:54:46;30.87;;;17.63;;
13897;SDS011;7019;50.766;4.474;2023-11-22T03:57:13;27.27;;;17.03;;
13897;SDS011;7019;50.766;4.474;2023-11-22T03:59:40;30.90;;;18.23;;
13897;SDS011;7019;50.766;4.474;2023-11-22T04:02:08;27.47;;;15.53;;
13897;SDS011;7019;50.766;4.474;2023-11-22T04:04:36;25.77;;;15.60;;
13897;SDS011;7019;50.766;4.474;2023-11-22T04:07:06;26.17;;;16.50;;
13897;SDS011;7019;50.766;4.474;2023-11-22T04:09:33;34.83;;;16.60;;
13897;SDS011;7019;50.766;4.474;2023-11-22T04:12:01;28.73;;;17.30;;
13897;SDS011;7019;50.766;4.474;2023-11-22T04:14:29;30.40;;;16.40;;
13897;SDS011;7019;50.766;4.474;2023-11-22T04:16:56;28.93;;;17.60;;
13897;SDS011;7019;50.766;4.474;2023-11-22T04:19:23;31.20;;;18.33;;
13897;SDS011;7019;50.766;4.474;2023-11-22T04:21:50;29.47;;;18.00;;
13897;SDS011;7019;50.766;4.474;2023-11-22T04:24:20;31.83;;;17.10;;
13897;SDS011;7019;50.766;4.474;2023-11-22T04:26:47;34.40;;;18.57;;
13897;SDS011;7019;50.766;4.474;2023-11-22T04:29:14;27.93;;;15.97;;
13897;SDS011;7019;50.766;4.474;2023-11-22T04:31:42;30.73;;;17.63;;
13897;SDS011;7019;50.766;4.474;2023-11-22T04:34:09;26.90;;;16.53;;
13897;SDS011;7019;50.766;4.474;2023-11-22T04:36:36;32.10;;;18.23;;
13897;SDS011;7019;50.766;4.474;2023-11-22T04:39:04;36.07;;;18.40;;
13897;SDS011;7019;50.766;4.474;2023-11-22T04:41:33;32.67;;;18.27;;
13897;SDS011;7019;50.766;4.474;2023-11-22T04:44:01;33.43;;;17.80;;
13897;SDS011;7019;50.766;4.474;2023-11-22T04:46:28;32.20;;;16.93;;
13897;SDS011;7019;50.766;4.474;2023-11-22T04:48:55;32.17;;;17.40;;
13897;SDS011;7019;50.766;4.474;2023-11-22T04:51:22;34.87;;;18.60;;
13897;SDS011;7019;50.766;4.474;2023-11-22T04:53:50;30.13;;;17.30;;
13897;SDS011;7019;50.766;4.474;2023-11-22T04:56:17;34.03;;;17.90;;
13897;SDS011;7019;50.766;4.474;2023-11-22T04:58:46;32.63;;;17.93;;
13897;SDS011;7019;50.766;4.474;2023-11-22T05:01:13;33.07;;;18.23;;
13897;SDS011;7019;50.766;4.474;2023-11-22T05:03:40;32.80;;;17.63;;
13897;SDS011;7019;50.766;4.474;2023-11-22T05:06:07;31.27;;;15.83;;
13897;SDS011;7019;50.766;4.474;2023-11-22T05:08:34;32.77;;;18.87;;
13897;SDS011;7019;50.766;4.474;2023-11-22T05:11:01;27.57;;;16.60;;
13897;SDS011;7019;50.766;4.474;2023-11-22T05:13:29;30.67;;;16.63;;
13897;SDS011;7019;50.766;4.474;2023-11-22T05:15:58;29.87;;;16.90;;
13897;SDS011;7019;50.766;4.474;2023-11-22T05:18:26;29.37;;;16.63;;
13897;SDS011;7019;50.766;4.474;2023-11-22T05:20:53;30.77;;;16.80;;
13897;SDS011;7019;50.766;4.474;2023-11-22T05:23:20;29.90;;;17.43;;
13897;SDS011;7019;50.766;4.474;2023-11-22T05:25:47;29.73;;;16.97;;
13897;SDS011;7019;50.766;4.474;2023-11-22T05:28:14;31.17;;;17.53;;
13897;SDS011;7019;50.766;4.474;2023-11-22T05:30:41;35.40;;;18.93;;
13897;SDS011;7019;50.766;4.474;2023-11-22T05:33:10;31.93;;;18.60;;
13897;SDS011;7019;50.766;4.474;2023-11-22T05:35:37;29.63;;;17.77;;
13897;SDS011;7019;50.766;4.474;2023-11-22T05:38:04;30.40;;;17.30;;
13897;SDS011;7019;50.766;4.474;2023-11-22T05:40:31;29.80;;;16.80;;
13897;SDS011;7019;50.766;4.474;2023-11-22T05:42:58;29.80;;;17.40;;
13897;SDS011;7019;50.766;4.474;2023-11-22T05:45:25;30.90;;;17.60;;
13897;SDS011;7019;50.766;4.474;2023-11-22T05:47:52;29.67;;;17.63;;
13897;SDS011;7019;50.766;4.474;2023-11-22T05:50:20;30.03;;;16.67;;
13897;SDS011;7019;50.766;4.474;2023-11-22T05:52:47;34.07;;;17.57;;
13897;SDS011;7019;50.766;4.474;2023-11-22T05:55:14;33.43;;;18.00;;
13897;SDS011;7019;50.766;4.474;2023-11-22T05:57:43;32.73;;;18.60;;
13897;SDS011;7019;50.766;4.474;2023-11-22T06:00:11;34.63;;;19.87;;
13897;SDS011;7019;50.766;4.474;2023-11-22T06:02:39;34.60;;;19.07;;
13897;SDS011;7019;50.766;4.474;2023-11-22T06:05:06;33.30;;;18.30;;
13897;SDS011;7019;50.766;4.474;2023-11-22T06:07:36;32.57;;;17.97;;
13897;SDS011;7019;50.766;4.474;2023-11-22T06:10:03;36.83;;;18.00;;
13897;SDS011;7019;50.766;4.474;2023-11-22T06:12:31;34.03;;;19.10;;
13897;SDS011;7019;50.766;4.474;2023-11-22T06:14:58;28.50;;;17.77;;
13897;SDS011;7019;50.766;4.474;2023-11-22T06:17:25;32.97;;;18.60;;
13897;SDS011;7019;50.766;4.474;2023-11-22T06:19:52;32.77;;;18.03;;
13897;SDS011;7019;50.766;4.474;2023-11-22T06:22:19;34.73;;;19.07;;
13897;SDS011;7019;50.766;4.474;2023-11-22T06:24:47;31.17;;;17.47;;
13897;SDS011;7019;50.766;4.474;2023-11-22T06:27:14;27.70;;;16.53;;
13897;SDS011;7019;50.766;4.474;2023-11-22T06:29:41;29.10;;;16.57;;
13897;SDS011;7019;50.766;4.474;2023-11-22T06:32:09;28.07;;;16.53;;
13897;SDS011;7019;50.766;4.474;2023-11-22T06:34:36;28.50;;;16.90;;
13897;SDS011;7019;50.766;4.474;2023-11-22T06:37:03;27.47;;;16.03;;
13897;SDS011;7019;50.766;4.474;2023-11-22T06:39:33;23.73;;;15.10;;
13897;SDS011;7019;50.766;4.474;2023-11-22T06:42:04;29.37;;;16.23;;
13897;SDS011;7019;50.766;4.474;2023-11-22T06:44:31;29.17;;;16.63;;
13897;SDS011;7019;50.766;4.474;2023-11-22T06:46:59;29.93;;;17.23;;
13897;SDS011;7019;50.766;4.474;2023-11-22T06:49:27;28.57;;;16.23;;
13897;SDS011;7019;50.766;4.474;2023-11-22T06:51:54;30.27;;;16.60;;
13897;SDS011;7019;50.766;4.474;2023-11-22T06:54:21;26.70;;;15.20;;
13897;SDS011;7019;50.766;4.474;2023-11-22T06:56:48;29.57;;;17.20;;
13897;SDS011;7019;50.766;4.474;2023-11-22T06:59:17;29.20;;;17.10;;
13897;SDS011;7019;50.766;4.474;2023-11-22T07:01:45;26.47;;;15.77;;
13897;SDS011;7019;50.766;4.474;2023-11-22T07:04:12;27.83;;;16.03;;
13897;SDS011;7019;50.766;4.474;2023-11-22T07:06:39;29.87;;;16.67;;
13897;SDS011;7019;50.766;4.474;2023-11-22T07:09:08;31.20;;;16.43;;
13897;SDS011;7019;50.766;4.474;2023-11-22T07:11:35;27.80;;;15.77;;
13897;SDS011;7019;50.766;4.474;2023-11-22T07:14:03;30.30;;;16.60;;
13897;SDS011;7019;50.766;4.474;2023-11-22T07:16:32;28.70;;;16.90;;
13897;SDS011;7019;50.766;4.474;2023-11-22T07:18:59;28.70;;;15.37;;
13897;SDS011;7019;50.766;4.474;2023-11-22T07:21:28;29.10;;;15.53;;
13897;SDS011;7019;50.766;4.474;2023-11-22T07:23:56;32.10;;;16.40;;
13897;SDS011;7019;50.766;4.474;2023-11-22T07:26:24;27.73;;;15.80;;
13897;SDS011;7019;50.766;4.474;2023-11-22T07:28:52;27.33;;;16.30;;
13897;SDS011;7019;50.766;4.474;2023-11-22T07:31:19;29.03;;;16.27;;
13897;SDS011;7019;50.766;4.474;2023-11-22T07:33:49;32.20;;;16.67;;
13897;SDS011;7019;50.766;4.474;2023-11-22T07:36:16;31.93;;;16.63;;
13897;SDS011;7019;50.766;4.474;2023-11-22T07:38:45;31.30;;;17.90;;
13897;SDS011;7019;50.766;4.474;2023-11-22T07:41:13;36.93;;;18.43;;
13897;SDS011;7019;50.766;4.474;2023-11-22T07:43:40;34.63;;;18.17;;
13897;SDS011;7019;50.766;4.474;2023-11-22T07:46:08;39.00;;;18.43;;
13897;SDS011;7019;50.766;4.474;2023-11-22T07:48:37;34.80;;;18.43;;
13897;SDS011;7019;50.766;4.474;2023-11-22T07:51:07;31.97;;;17.40;;
13897;SDS011;7019;50.766;4.474;2023-11-22T07:53:34;32.90;;;17.50;;
13897;SDS011;7019;50.766;4.474;2023-11-22T07:56:02;31.70;;;17.87;;
13897;SDS011;7019;50.766;4.474;2023-11-22T07:58:29;33.23;;;17.90;;
13897;SDS011;7019;50.766;4.474;2023-11-22T08:00:57;31.77;;;17.33;;
13897;SDS011;7019;50.766;4.474;2023-11-22T08:03:24;31.33;;;16.37;;
13897;SDS011;7019;50.766;4.474;2023-11-22T08:05:52;27.00;;;17.00;;
13897;SDS011;7019;50.766;4.474;2023-11-22T08:08:22;29.37;;;16.53;;
13897;SDS011;7019;50.766;4.474;2023-11-22T08:10:49;25.90;;;15.07;;
13897;SDS011;7019;50.766;4.474;2023-11-22T08:13:18;26.63;;;15.23;;
13897;SDS011;7019;50.766;4.474;2023-11-22T08:15:47;27.17;;;15.37;;
13897;SDS011;7019;50.766;4.474;2023-11-22T08:18:15;30.70;;;16.27;;
13897;SDS011;7019;50.766;4.474;2023-11-22T08:20:42;28.00;;;15.57;;
13897;SDS011;7019;50.766;4.474;2023-11-22T08:23:10;27.57;;;15.43;;
13897;SDS011;7019;50.766;4.474;2023-11-22T08:25:39;29.77;;;17.23;;
13897;SDS011;7019;50.766;4.474;2023-11-22T08:28:06;27.30;;;16.57;;
13897;SDS011;7019;50.766;4.474;2023-11-22T08:30:34;31.10;;;16.47;;
13897;SDS011;7019;50.766;4.474;2023-11-22T08:33:02;29.97;;;17.23;;
13897;SDS011;7019;50.766;4.474;2023-11-22T08:35:29;34.00;;;18.37;;
13897;SDS011;7019;50.766;4.474;2023-11-22T08:37:56;27.30;;;16.43;;
13897;SDS011;7019;50.766;4.474;2023-11-22T08:40:23;25.50;;;15.37;;
13897;SDS011;7019;50.766;4.474;2023-11-22T08:42:52;31.50;;;17.93;;
13897;SDS011;7019;50.766;4.474;2023-11-22T08:45:19;29.00;;;16.80;;
13897;SDS011;7019;50.766;4.474;2023-11-22T08:47:46;26.27;;;16.10;;
13897;SDS011;7019;50.766;4.474;2023-11-22T08:50:15;25.70;;;15.93;;
13897;SDS011;7019;50.766;4.474;2023-11-22T08:52:42;30.33;;;16.87;;
13897;SDS011;7019;50.766;4.474;2023-11-22T08:55:10;27.43;;;15.70;;
13897;SDS011;7019;50.766;4.474;2023-11-22T08:57:37;25.93;;;14.83;;
13897;SDS011;7019;50.766;4.474;2023-11-22T09:00:07;25.27;;;15.30;;
13897;SDS011;7019;50.766;4.474;2023-11-22T09:02:36;25.30;;;14.37;;
13897;SDS011;7019;50.766;4.474;2023-11-22T09:05:04;22.17;;;14.03;;
13897;SDS011;7019;50.766;4.474;2023-11-22T09:07:33;24.73;;;14.90;;
13897;SDS011;7019;50.766;4.474;2023-11-22T09:10:01;26.40;;;15.70;;
13897;SDS011;7019;50.766;4.474;2023-11-22T09:12:34;25.83;;;15.33;;
13897;SDS011;7019;50.766;4.474;2023-11-22T09:15:03;23.93;;;14.13;;
13897;SDS011;7019;50.766;4.474;2023-11-22T09:17:35;24.33;;;15.00;;
13897;SDS011;7019;50.766;4.474;2023-11-22T09:20:05;25.53;;;14.93;;
13897;SDS011;7019;50.766;4.474;2023-11-22T09:22:36;22.30;;;13.77;;
13897;SDS011;7019;50.766;4.474;2023-11-22T09:25:05;24.77;;;14.53;;
13897;SDS011;7019;50.766;4.474;2023-11-22T09:27:36;24.70;;;16.27;;
13897;SDS011;7019;50.766;4.474;2023-11-22T09:30:05;23.50;;;14.03;;
13897;SDS011;7019;50.766;4.474;2023-11-22T09:32:43;23.10;;;13.37;;
13897;SDS011;7019;50.766;4.474;2023-11-22T09:35:13;22.27;;;14.20;;
13897;SDS011;7019;50.766;4.474;2023-11-22T09:37:41;21.83;;;13.93;;
13897;SDS011;7019;50.766;4.474;2023-11-22T09:40:10;21.90;;;13.30;;
13897;SDS011;7019;50.766;4.474;2023-11-22T09:42:42;20.03;;;13.43;;
13897;SDS011;7019;50.766;4.474;2023-11-22T09:45:15;20.13;;;13.67;;
13897;SDS011;7019;50.766;4.474;2023-11-22T09:47:45;21.67;;;13.17;;
13897;SDS011;7019;50.766;4.474;2023-11-22T09:50:13;20.33;;;13.40;;
13897;SDS011;7019;50.766;4.474;2023-11-22T09:52:46;26.23;;;13.00;;
13897;SDS011;7019;50.766;4.474;2023-11-22T09:55:16;21.90;;;12.93;;
13897;SDS011;7019;50.766;4.474;2023-11-22T09:57:44;19.00;;;12.93;;
13897;SDS011;7019;50.766;4.474;2023-11-22T10:00:12;20.03;;;13.30;;
13897;SDS011;7019;50.766;4.474;2023-11-22T10:02:45;18.80;;;12.83;;
13897;SDS011;7019;50.766;4.474;2023-11-22T10:05:15;20.17;;;12.67;;
13897;SDS011;7019;50.766;4.474;2023-11-22T10:07:45;19.93;;;13.20;;
13897;SDS011;7019;50.766;4.474;2023-11-22T10:10:14;20.70;;;13.17;;
13897;SDS011;7019;50.766;4.474;2023-11-22T10:12:43;22.03;;;11.57;;
13897;SDS011;7019;50.766;4.474;2023-11-22T10:15:11;18.53;;;12.33;;
13897;SDS011;7019;50.766;4.474;2023-11-22T10:17:41;20.23;;;12.50;;
13897;SDS011;7019;50.766;4.474;2023-11-22T10:20:22;19.80;;;11.70;;
13897;SDS011;7019;50.766;4.474;2023-11-22T10:22:51;21.23;;;13.13;;
13897;SDS011;7019;50.766;4.474;2023-11-22T10:25:19;21.47;;;13.57;;
13897;SDS011;7019;50.766;4.474;2023-11-22T10:27:48;20.17;;;13.37;;
13897;SDS011;7019;50.766;4.474;2023-11-22T10:30:16;21.43;;;12.97;;
13897;SDS011;7019;50.766;4.474;2023-11-22T10:32:44;21.20;;;12.50;;
13897;SDS011;7019;50.766;4.474;2023-11-22T10:35:13;18.83;;;11.40;;
13897;SDS011;7019;50.766;4.474;2023-11-22T10:37:41;17.87;;;11.13;;
13897;SDS011;7019;50.766;4.474;2023-11-22T10:40:11;15.43;;;10.80;;
13897;SDS011;7019;50.766;4.474;2023-11-22T10:42:40;18.43;;;11.83;;
13897;SDS011;7019;50.766;4.474;2023-11-22T10:45:09;18.43;;;10.83;;
13897;SDS011;7019;50.766;4.474;2023-11-22T10:47:36;16.30;;;11.43;;
13897;SDS011;7019;50.766;4.474;2023-11-22T10:50:07;19.70;;;11.77;;
13897;SDS011;7019;50.766;4.474;2023-11-22T10:52:36;15.70;;;11.10;;
13897;SDS011;7019;50.766;4.474;2023-11-22T10:55:08;16.17;;;10.73;;
13897;SDS011;7019;50.766;4.474;2023-11-22T10:57:42;18.63;;;11.43;;
13897;SDS011;7019;50.766;4.474;2023-11-22T11:00:13;16.03;;;10.60;;
13897;SDS011;7019;50.766;4.474;2023-11-22T11:02:44;16.73;;;10.53;;
13897;SDS011;7019;50.766;4.474;2023-11-22T11:05:15;15.27;;;9.80;;
13897;SDS011;7019;50.766;4.474;2023-11-22T11:07:48;15.47;;;10.53;;
13897;SDS011;7019;50.766;4.474;2023-11-22T11:10:19;19.53;;;10.93;;
13897;SDS011;7019;50.766;4.474;2023-11-22T11:12:48;18.77;;;10.93;;
13897;SDS011;7019;50.766;4.474;2023-11-22T11:15:15;14.97;;;9.90;;
13897;SDS011;7019;50.766;4.474;2023-11-22T11:17:44;16.40;;;9.80;;
13897;SDS011;7019;50.766;4.474;2023-11-22T11:20:15;15.90;;;10.60;;
13897;SDS011;7019;50.766;4.474;2023-11-22T11:22:47;14.10;;;10.17;;
13897;SDS011;7019;50.766;4.474;2023-11-22T11:25:17;16.83;;;10.87;;
13897;SDS011;7019;50.766;4.474;2023-11-22T11:27:45;17.37;;;10.77;;
13897;SDS011;7019;50.766;4.474;2023-11-22T11:33:11;16.70;;;10.77;;
13897;SDS011;7019;50.766;4.474;2023-11-22T11:35:42;20.80;;;10.50;;
13897;SDS011;7019;50.766;4.474;2023-11-22T11:38:13;17.47;;;11.53;;
13897;SDS011;7019;50.766;4.474;2023-11-22T11:40:42;15.47;;;9.77;;
13897;SDS011;7019;50.766;4.474;2023-11-22T11:43:11;15.70;;;10.00;;
13897;SDS011;7019;50.766;4.474;2023-11-22T11:45:39;15.07;;;9.70;;
13897;SDS011;7019;50.766;4.474;2023-11-22T11:48:11;15.60;;;9.03;;
13897;SDS011;7019;50.766;4.474;2023-11-22T11:50:40;16.23;;;10.23;;
13897;SDS011;7019;50.766;4.474;2023-11-22T11:53:07;14.50;;;9.27;;
13897;SDS011;7019;50.766;4.474;2023-11-22T11:55:37;15.30;;;10.07;;
13897;SDS011;7019;50.766;4.474;2023-11-22T11:58:04;15.13;;;9.73;;
13897;SDS011;7019;50.766;4.474;2023-11-22T12:00:34;15.53;;;10.83;;
13897;SDS011;7019;50.766;4.474;2023-11-22T12:03:05;20.97;;;10.87;;
13897;SDS011;7019;50.766;4.474;2023-11-22T12:05:35;16.00;;;10.27;;
13897;SDS011;7019;50.766;4.474;2023-11-22T12:08:02;15.23;;;9.57;;
13897;SDS011;7019;50.766;4.474;2023-11-22T12:10:29;15.77;;;10.47;;
13897;SDS011;7019;50.766;4.474;2023-11-22T12:12:58;15.27;;;9.80;;
13897;SDS011;7019;50.766;4.474;2023-11-22T12:15:25;18.30;;;9.97;;
13897;SDS011;7019;50.766;4.474;2023-11-22T12:17:54;18.60;;;10.47;;
13897;SDS011;7019;50.766;4.474;2023-11-22T12:20:22;14.90;;;9.97;;
13897;SDS011;7019;50.766;4.474;2023-11-22T12:22:51;15.40;;;10.30;;
13897;SDS011;7019;50.766;4.474;2023-11-22T12:25:19;13.97;;;9.83;;
13897;SDS011;7019;50.766;4.474;2023-11-22T12:27:46;13.70;;;8.67;;
13897;SDS011;7019;50.766;4.474;2023-11-22T12:30:31;14.20;;;9.30;;
13897;SDS011;7019;50.766;4.474;2023-11-22T12:33:00;12.97;;;9.40;;
13897;SDS011;7019;50.766;4.474;2023-11-22T12:35:29;14.70;;;9.00;;
13897;SDS011;7019;50.766;4.474;2023-11-22T12:37:58;13.67;;;9.13;;
13897;SDS011;7019;50.766;4.474;2023-11-22T12:40:26;12.43;;;9.00;;
13897;SDS011;7019;50.766;4.474;2023-11-22T12:42:56;14.53;;;8.90;;
13897;SDS011;7019;50.766;4.474;2023-11-22T12:45:24;16.17;;;9.53;;
13897;SDS011;7019;50.766;4.474;2023-11-22T12:47:55;16.23;;;9.83;;
13897;SDS011;7019;50.766;4.474;2023-11-22T12:50:30;14.83;;;9.43;;
13897;SDS011;7019;50.766;4.474;2023-11-22T12:52:59;18.70;;;9.50;;
13897;SDS011;7019;50.766;4.474;2023-11-22T12:55:35;15.00;;;9.90;;
13897;SDS011;7019;50.766;4.474;2023-11-22T12:58:03;15.33;;;8.93;;
13897;SDS011;7019;50.766;4.474;2023-11-22T13:00:30;13.67;;;9.33;;
13897;SDS011;7019;50.766;4.474;2023-11-22T13:02:59;12.90;;;9.60;;
13897;SDS011;7019;50.766;4.474;2023-11-22T13:05:26;15.90;;;10.77;;
13897;SDS011;7019;50.766;4.474;2023-11-22T13:07:53;14.00;;;9.23;;
13897;SDS011;7019;50.766;4.474;2023-11-22T13:10:20;14.83;;;10.33;;
13897;SDS011;7019;50.766;4.474;2023-11-22T13:12:51;20.53;;;9.97;;
13897;SDS011;7019;50.766;4.474;2023-11-22T13:15:19;14.93;;;9.67;;
13897;SDS011;7019;50.766;4.474;2023-11-22T13:17:49;14.77;;;9.53;;
13897;SDS011;7019;50.766;4.474;2023-11-22T13:20:21;16.47;;;10.10;;
13897;SDS011;7019;50.766;4.474;2023-11-22T13:22:50;15.63;;;10.30;;
13897;SDS011;7019;50.766;4.474;2023-11-22T13:25:18;17.93;;;11.60;;
13897;SDS011;7019;50.766;4.474;2023-11-22T13:27:46;17.70;;;11.07;;
13897;SDS011;7019;50.766;4.474;2023-11-22T13:30:14;15.47;;;10.37;;
13897;SDS011;7019;50.766;4.474;2023-11-22T13:32:44;14.23;;;9.40;;
13897;SDS011;7019;50.766;4.474;2023-11-22T13:35:12;13.57;;;9.13;;
13897;SDS011;7019;50.766;4.474;2023-11-22T13:37:43;16.70;;;9.70;;
13897;SDS011;7019;50.766;4.474;2023-11-22T13:40:13;14.77;;;9.77;;
13897;SDS011;7019;50.766;4.474;2023-11-22T13:42:42;17.03;;;10.57;;
13897;SDS011;7019;50.766;4.474;2023-11-22T13:45:10;14.80;;;10.33;;
13897;SDS011;7019;50.766;4.474;2023-11-22T13:47:42;17.77;;;10.83;;
13897;SDS011;7019;50.766;4.474;2023-11-22T13:50:12;19.43;;;10.77;;
13897;SDS011;7019;50.766;4.474;2023-11-22T13:52:40;16.77;;;10.03;;
13897;SDS011;7019;50.766;4.474;2023-11-22T13:55:09;14.90;;;9.73;;
13897;SDS011;7019;50.766;4.474;2023-11-22T13:57:37;16.73;;;9.93;;
13897;SDS011;7019;50.766;4.474;2023-11-22T14:00:05;14.43;;;10.23;;
13897;SDS011;7019;50.766;4.474;2023-11-22T14:02:37;14.93;;;9.40;;
13897;SDS011;7019;50.766;4.474;2023-11-22T14:05:06;13.43;;;9.03;;
13897;SDS011;7019;50.766;4.474;2023-11-22T14:07:34;14.83;;;9.83;;
13897;SDS011;7019;50.766;4.474;2023-11-22T14:10:02;16.80;;;9.77;;
13897;SDS011;7019;50.766;4.474;2023-11-22T14:12:31;17.23;;;9.17;;
13897;SDS011;7019;50.766;4.474;2023-11-22T14:14:59;14.37;;;9.33;;
13897;SDS011;7019;50.766;4.474;2023-11-22T14:17:26;18.30;;;10.20;;
13897;SDS011;7019;50.766;4.474;2023-11-22T14:19:53;17.73;;;9.67;;
13897;SDS011;7019;50.766;4.474;2023-11-22T14:22:21;19.53;;;8.90;;
13897;SDS011;7019;50.766;4.474;2023-11-22T14:24:48;16.67;;;9.43;;
13897;SDS011;7019;50.766;4.474;2023-11-22T14:27:16;15.23;;;9.83;;
13897;SDS011;7019;50.766;4.474;2023-11-22T14:29:45;14.10;;;8.97;;
13897;SDS011;7019;50.766;4.474;2023-11-22T14:32:14;18.73;;;9.57;;
13897;SDS011;7019;50.766;4.474;2023-11-22T14:34:41;16.30;;;10.70;;
13897;SDS011;7019;50.766;4.474;2023-11-22T14:37:09;17.47;;;11.10;;
13897;SDS011;7019;50.766;4.474;2023-11-22T14:39:37;17.80;;;10.93;;
13897;SDS011;7019;50.766;4.474;2023-11-22T14:42:04;14.40;;;9.77;;
13897;SDS011;7019;50.766;4.474;2023-11-22T14:44:32;14.30;;;9.80;;